Terminal Aerodrome Forecast
Issued by NWS

Home | Current Version | Previous Version | Text Only | Print | Product List | Glossary On
Versions: 1 2 3 4 5 6 7 8 9 10 11 12 13 14 15 16 17 18 19 20 21 22 23 24 25
598
FTUS44 KLZK 070539
TAFLLQ
TAF
KLLQ 070539Z 0706/0806 VRB03KT 6SM BR BKN025 BKN050
      TEMPO 0706/0708 5SM BR OVC025
     FM070800 05005KT P6SM -DZ BKN012 OVC020
     FM071600 06006KT P6SM -DZ SCT008 OVC015 PROB30 0800/0806 4SM
      -RADZ BR BKN008 OVC020=

USA.gov is the U.S. government's official web portal to all federal, state and local government web resources and services.